Terminal Aerodrome Forecast
Issued by NWS

Home | Current Version | Previous Version | Text Only | Print | Product List | Glossary On
Versions: 1 2 3 4 5 6 7 8 9 10 11 12 13 14 15 16 17
000
FTUS43 KBIS 181720
TAFJMS
TAF
KJMS 181720Z 1818/1918 02018G27KT 2SM -SN BR OVC020
     FM181900 02018G27KT P6SM VCSH BKN025
     FM182300 36018KT P6SM OVC025
     FM190400 36011KT P6SM BKN035=

USA.gov is the U.S. government's official web portal to all federal, state and local government web resources and services.